sensor_id;sensor_type;location;lat;lon;timestamp;P1;durP1;ratioP1;P2;durP2;ratioP2
21562;SDS011;10942;47.894;11.424;2023-02-28T00:07:55;4.05;;;2.42;;
21562;SDS011;10942;47.894;11.424;2023-02-28T00:10:25;5.13;;;2.60;;
21562;SDS011;10942;47.894;11.424;2023-02-28T00:12:53;5.32;;;3.00;;
21562;SDS011;10942;47.894;11.424;2023-02-28T00:15:22;4.43;;;2.72;;
21562;SDS011;10942;47.894;11.424;2023-02-28T00:17:48;6.28;;;2.78;;
21562;SDS011;10942;47.894;11.424;2023-02-28T00:20:14;6.88;;;3.13;;
21562;SDS011;10942;47.894;11.424;2023-02-28T00:22:41;5.78;;;2.80;;
21562;SDS011;10942;47.894;11.424;2023-02-28T00:25:09;5.78;;;2.95;;
21562;SDS011;10942;47.894;11.424;2023-02-28T00:27:37;5.22;;;3.15;;
21562;SDS011;10942;47.894;11.424;2023-02-28T00:30:04;7.03;;;2.90;;
21562;SDS011;10942;47.894;11.424;2023-02-28T00:32:31;6.07;;;2.70;;
21562;SDS011;10942;47.894;11.424;2023-02-28T00:34:57;6.80;;;2.92;;
21562;SDS011;10942;47.894;11.424;2023-02-28T00:37:23;4.85;;;2.88;;
21562;SDS011;10942;47.894;11.424;2023-02-28T00:39:49;6.22;;;3.03;;
21562;SDS011;10942;47.894;11.424;2023-02-28T00:42:14;5.30;;;2.75;;
21562;SDS011;10942;47.894;11.424;2023-02-28T00:44:40;4.43;;;2.75;;
21562;SDS011;10942;47.894;11.424;2023-02-28T00:47:06;6.57;;;3.35;;
21562;SDS011;10942;47.894;11.424;2023-02-28T00:49:32;5.70;;;2.80;;
21562;SDS011;10942;47.894;11.424;2023-02-28T00:51:58;5.85;;;3.13;;
21562;SDS011;10942;47.894;11.424;2023-02-28T00:54:25;5.75;;;2.60;;
21562;SDS011;10942;47.894;11.424;2023-02-28T00:56:50;5.95;;;3.30;;
21562;SDS011;10942;47.894;11.424;2023-02-28T00:59:16;6.32;;;2.70;;
21562;SDS011;10942;47.894;11.424;2023-02-28T01:01:44;5.00;;;2.97;;
21562;SDS011;10942;47.894;11.424;2023-02-28T01:04:10;7.57;;;2.63;;
21562;SDS011;10942;47.894;11.424;2023-02-28T01:06:36;4.25;;;2.70;;
21562;SDS011;10942;47.894;11.424;2023-02-28T01:09:02;6.57;;;3.25;;
21562;SDS011;10942;47.894;11.424;2023-02-28T01:11:29;6.35;;;2.88;;
21562;SDS011;10942;47.894;11.424;2023-02-28T01:13:55;7.07;;;3.13;;
21562;SDS011;10942;47.894;11.424;2023-02-28T01:16:20;5.60;;;3.03;;
21562;SDS011;10942;47.894;11.424;2023-02-28T01:18:46;5.53;;;3.17;;
21562;SDS011;10942;47.894;11.424;2023-02-28T01:21:13;5.97;;;2.63;;
21562;SDS011;10942;47.894;11.424;2023-02-28T01:23:40;7.32;;;3.55;;
21562;SDS011;10942;47.894;11.424;2023-02-28T01:26:09;5.70;;;2.85;;
21562;SDS011;10942;47.894;11.424;2023-02-28T01:28:38;5.05;;;2.72;;
21562;SDS011;10942;47.894;11.424;2023-02-28T01:31:04;5.78;;;2.95;;
21562;SDS011;10942;47.894;11.424;2023-02-28T01:33:30;5.38;;;3.03;;
21562;SDS011;10942;47.894;11.424;2023-02-28T01:36:01;5.55;;;2.65;;
21562;SDS011;10942;47.894;11.424;2023-02-28T01:38:34;5.60;;;3.08;;
21562;SDS011;10942;47.894;11.424;2023-02-28T01:41:00;4.75;;;2.72;;
21562;SDS011;10942;47.894;11.424;2023-02-28T01:43:28;6.07;;;3.55;;
21562;SDS011;10942;47.894;11.424;2023-02-28T01:45:56;5.93;;;3.03;;
21562;SDS011;10942;47.894;11.424;2023-02-28T01:48:25;6.10;;;2.80;;
21562;SDS011;10942;47.894;11.424;2023-02-28T01:50:54;7.35;;;3.28;;
21562;SDS011;10942;47.894;11.424;2023-02-28T01:53:28;10.50;;;3.60;;
21562;SDS011;10942;47.894;11.424;2023-02-28T01:55:57;8.02;;;4.13;;
21562;SDS011;10942;47.894;11.424;2023-02-28T01:58:23;7.70;;;3.78;;
21562;SDS011;10942;47.894;11.424;2023-02-28T02:00:49;6.85;;;3.65;;
21562;SDS011;10942;47.894;11.424;2023-02-28T02:03:16;5.57;;;2.90;;
21562;SDS011;10942;47.894;11.424;2023-02-28T02:05:44;6.00;;;3.35;;
21562;SDS011;10942;47.894;11.424;2023-02-28T02:08:17;5.97;;;3.08;;
21562;SDS011;10942;47.894;11.424;2023-02-28T02:10:50;5.60;;;3.28;;
21562;SDS011;10942;47.894;11.424;2023-02-28T02:21:47;4.57;;;2.78;;
21562;SDS011;10942;47.894;11.424;2023-02-28T02:35:42;5.32;;;2.88;;
21562;SDS011;10942;47.894;11.424;2023-02-28T02:38:21;5.05;;;2.70;;
21562;SDS011;10942;47.894;11.424;2023-02-28T02:43:53;5.22;;;2.55;;
21562;SDS011;10942;47.894;11.424;2023-02-28T02:46:33;6.63;;;3.38;;
21562;SDS011;10942;47.894;11.424;2023-02-28T02:49:04;5.50;;;3.00;;
21562;SDS011;10942;47.894;11.424;2023-02-28T02:51:34;5.32;;;2.92;;
21562;SDS011;10942;47.894;11.424;2023-02-28T02:54:08;5.93;;;2.78;;
21562;SDS011;10942;47.894;11.424;2023-02-28T02:56:41;6.00;;;2.97;;
21562;SDS011;10942;47.894;11.424;2023-02-28T02:59:11;6.22;;;2.97;;
21562;SDS011;10942;47.894;11.424;2023-02-28T03:01:39;8.88;;;3.40;;
21562;SDS011;10942;47.894;11.424;2023-02-28T03:04:13;7.38;;;3.55;;
21562;SDS011;10942;47.894;11.424;2023-02-28T03:06:45;7.57;;;3.60;;
21562;SDS011;10942;47.894;11.424;2023-02-28T03:09:11;6.00;;;3.15;;
21562;SDS011;10942;47.894;11.424;2023-02-28T03:11:38;7.45;;;3.55;;
21562;SDS011;10942;47.894;11.424;2023-02-28T03:14:24;6.00;;;3.10;;
21562;SDS011;10942;47.894;11.424;2023-02-28T03:17:24;6.93;;;3.08;;
21562;SDS011;10942;47.894;11.424;2023-02-28T03:20:10;7.32;;;3.17;;
21562;SDS011;10942;47.894;11.424;2023-02-28T03:22:45;6.13;;;3.50;;
21562;SDS011;10942;47.894;11.424;2023-02-28T03:30:49;6.90;;;3.43;;
21562;SDS011;10942;47.894;11.424;2023-02-28T03:33:43;7.30;;;3.55;;
21562;SDS011;10942;47.894;11.424;2023-02-28T03:36:12;7.63;;;3.80;;
21562;SDS011;10942;47.894;11.424;2023-02-28T03:41:22;7.85;;;4.20;;
21562;SDS011;10942;47.894;11.424;2023-02-28T03:44:02;6.75;;;4.55;;
21562;SDS011;10942;47.894;11.424;2023-02-28T03:46:40;6.50;;;3.95;;
21562;SDS011;10942;47.894;11.424;2023-02-28T03:49:13;9.15;;;4.30;;
21562;SDS011;10942;47.894;11.424;2023-02-28T03:51:43;7.43;;;4.32;;
21562;SDS011;10942;47.894;11.424;2023-02-28T03:54:12;7.93;;;4.28;;
21562;SDS011;10942;47.894;11.424;2023-02-28T03:56:43;9.38;;;4.18;;
21562;SDS011;10942;47.894;11.424;2023-02-28T03:59:23;9.48;;;4.47;;
21562;SDS011;10942;47.894;11.424;2023-02-28T04:01:54;9.23;;;4.40;;
21562;SDS011;10942;47.894;11.424;2023-02-28T04:04:20;8.20;;;4.47;;
21562;SDS011;10942;47.894;11.424;2023-02-28T04:06:47;7.70;;;4.35;;
21562;SDS011;10942;47.894;11.424;2023-02-28T04:09:16;9.48;;;4.88;;
21562;SDS011;10942;47.894;11.424;2023-02-28T04:11:42;8.25;;;5.10;;
21562;SDS011;10942;47.894;11.424;2023-02-28T04:14:11;8.02;;;5.32;;
21562;SDS011;10942;47.894;11.424;2023-02-28T04:16:38;11.07;;;5.32;;
21562;SDS011;10942;47.894;11.424;2023-02-28T04:19:06;10.25;;;5.65;;
21562;SDS011;10942;47.894;11.424;2023-02-28T04:21:34;10.18;;;5.38;;
21562;SDS011;10942;47.894;11.424;2023-02-28T04:24:04;9.05;;;5.28;;
21562;SDS011;10942;47.894;11.424;2023-02-28T04:26:32;9.15;;;5.50;;
21562;SDS011;10942;47.894;11.424;2023-02-28T04:28:59;11.02;;;5.65;;
21562;SDS011;10942;47.894;11.424;2023-02-28T04:31:26;9.98;;;5.15;;
21562;SDS011;10942;47.894;11.424;2023-02-28T04:33:52;9.43;;;5.40;;
21562;SDS011;10942;47.894;11.424;2023-02-28T04:36:17;10.10;;;4.78;;
21562;SDS011;10942;47.894;11.424;2023-02-28T04:38:44;8.80;;;5.10;;
21562;SDS011;10942;47.894;11.424;2023-02-28T04:41:10;9.98;;;5.10;;
21562;SDS011;10942;47.894;11.424;2023-02-28T04:43:37;11.40;;;5.50;;
21562;SDS011;10942;47.894;11.424;2023-02-28T04:46:03;12.68;;;6.20;;
21562;SDS011;10942;47.894;11.424;2023-02-28T04:48:31;10.82;;;5.50;;
21562;SDS011;10942;47.894;11.424;2023-02-28T04:51:01;10.73;;;6.05;;
21562;SDS011;10942;47.894;11.424;2023-02-28T04:53:37;12.57;;;5.60;;
21562;SDS011;10942;47.894;11.424;2023-02-28T04:56:04;12.65;;;6.40;;
21562;SDS011;10942;47.894;11.424;2023-02-28T04:58:31;10.73;;;7.03;;
21562;SDS011;10942;47.894;11.424;2023-02-28T05:01:04;12.57;;;6.65;;
21562;SDS011;10942;47.894;11.424;2023-02-28T05:03:40;8.43;;;5.85;;
21562;SDS011;10942;47.894;11.424;2023-02-28T05:06:10;11.30;;;5.78;;
21562;SDS011;10942;47.894;11.424;2023-02-28T05:08:37;9.30;;;5.30;;
21562;SDS011;10942;47.894;11.424;2023-02-28T05:11:03;12.80;;;5.95;;
21562;SDS011;10942;47.894;11.424;2023-02-28T05:13:30;11.02;;;6.22;;
21562;SDS011;10942;47.894;11.424;2023-02-28T05:15:56;11.52;;;5.50;;
21562;SDS011;10942;47.894;11.424;2023-02-28T05:18:22;11.57;;;6.00;;
21562;SDS011;10942;47.894;11.424;2023-02-28T05:20:47;17.30;;;9.60;;
21562;SDS011;10942;47.894;11.424;2023-02-28T05:23:13;19.90;;;9.63;;
21562;SDS011;10942;47.894;11.424;2023-02-28T05:25:41;94.00;;;37.90;;
21562;SDS011;10942;47.894;11.424;2023-02-28T05:28:07;59.95;;;24.88;;
21562;SDS011;10942;47.894;11.424;2023-02-28T05:30:33;35.70;;;14.95;;
21562;SDS011;10942;47.894;11.424;2023-02-28T05:32:58;60.17;;;24.58;;
21562;SDS011;10942;47.894;11.424;2023-02-28T05:35:24;64.72;;;27.50;;
21562;SDS011;10942;47.894;11.424;2023-02-28T05:37:51;15.70;;;7.97;;
21562;SDS011;10942;47.894;11.424;2023-02-28T05:40:17;52.83;;;21.58;;
21562;SDS011;10942;47.894;11.424;2023-02-28T05:42:45;98.15;;;37.20;;
21562;SDS011;10942;47.894;11.424;2023-02-28T05:45:11;29.60;;;11.55;;
21562;SDS011;10942;47.894;11.424;2023-02-28T05:47:37;24.08;;;8.88;;
21562;SDS011;10942;47.894;11.424;2023-02-28T05:50:03;15.55;;;8.45;;
21562;SDS011;10942;47.894;11.424;2023-02-28T05:52:30;17.52;;;8.43;;
21562;SDS011;10942;47.894;11.424;2023-02-28T05:54:56;17.45;;;7.85;;
21562;SDS011;10942;47.894;11.424;2023-02-28T05:57:22;20.15;;;8.50;;
21562;SDS011;10942;47.894;11.424;2023-02-28T05:59:48;15.00;;;8.13;;
21562;SDS011;10942;47.894;11.424;2023-02-28T06:02:15;15.52;;;8.02;;
21562;SDS011;10942;47.894;11.424;2023-02-28T06:04:42;21.05;;;10.20;;
21562;SDS011;10942;47.894;11.424;2023-02-28T06:07:08;18.23;;;8.82;;
21562;SDS011;10942;47.894;11.424;2023-02-28T06:09:34;19.92;;;10.25;;
21562;SDS011;10942;47.894;11.424;2023-02-28T06:12:01;20.50;;;9.63;;
21562;SDS011;10942;47.894;11.424;2023-02-28T06:14:29;18.08;;;9.18;;
21562;SDS011;10942;47.894;11.424;2023-02-28T06:16:56;15.20;;;9.20;;
21562;SDS011;10942;47.894;11.424;2023-02-28T06:19:22;18.90;;;10.77;;
21562;SDS011;10942;47.894;11.424;2023-02-28T06:21:50;19.73;;;10.45;;
21562;SDS011;10942;47.894;11.424;2023-02-28T06:24:23;20.73;;;10.95;;
21562;SDS011;10942;47.894;11.424;2023-02-28T06:26:50;19.80;;;11.02;;
21562;SDS011;10942;47.894;11.424;2023-02-28T06:29:16;19.65;;;10.80;;
21562;SDS011;10942;47.894;11.424;2023-02-28T06:31:44;18.90;;;10.40;;
21562;SDS011;10942;47.894;11.424;2023-02-28T06:34:10;19.08;;;10.93;;
21562;SDS011;10942;47.894;11.424;2023-02-28T06:36:40;20.27;;;10.55;;
21562;SDS011;10942;47.894;11.424;2023-02-28T06:39:07;20.48;;;11.30;;
21562;SDS011;10942;47.894;11.424;2023-02-28T06:41:34;27.30;;;12.77;;
21562;SDS011;10942;47.894;11.424;2023-02-28T06:44:12;21.30;;;11.85;;
21562;SDS011;10942;47.894;11.424;2023-02-28T06:46:41;22.15;;;12.63;;
21562;SDS011;10942;47.894;11.424;2023-02-28T06:49:08;21.27;;;11.50;;
21562;SDS011;10942;47.894;11.424;2023-02-28T06:51:35;20.17;;;11.98;;
21562;SDS011;10942;47.894;11.424;2023-02-28T06:54:02;23.50;;;12.40;;
21562;SDS011;10942;47.894;11.424;2023-02-28T06:56:28;19.90;;;11.85;;
21562;SDS011;10942;47.894;11.424;2023-02-28T06:58:53;24.70;;;11.85;;
21562;SDS011;10942;47.894;11.424;2023-02-28T07:01:19;23.35;;;12.25;;
21562;SDS011;10942;47.894;11.424;2023-02-28T07:03:47;21.35;;;12.45;;
21562;SDS011;10942;47.894;11.424;2023-02-28T07:06:17;22.75;;;12.63;;
21562;SDS011;10942;47.894;11.424;2023-02-28T07:08:48;27.05;;;13.02;;
21562;SDS011;10942;47.894;11.424;2023-02-28T07:11:14;27.15;;;17.30;;
21562;SDS011;10942;47.894;11.424;2023-02-28T07:13:40;25.27;;;12.75;;
21562;SDS011;10942;47.894;11.424;2023-02-28T07:16:06;23.67;;;12.02;;
21562;SDS011;10942;47.894;11.424;2023-02-28T07:18:35;21.92;;;12.85;;
21562;SDS011;10942;47.894;11.424;2023-02-28T07:21:02;26.40;;;14.13;;
21562;SDS011;10942;47.894;11.424;2023-02-28T07:23:30;27.38;;;14.00;;
21562;SDS011;10942;47.894;11.424;2023-02-28T07:25:56;26.02;;;14.18;;
21562;SDS011;10942;47.894;11.424;2023-02-28T07:28:21;27.30;;;14.30;;
21562;SDS011;10942;47.894;11.424;2023-02-28T07:30:47;25.73;;;12.57;;
21562;SDS011;10942;47.894;11.424;2023-02-28T07:33:13;23.27;;;12.55;;
21562;SDS011;10942;47.894;11.424;2023-02-28T07:35:39;23.02;;;13.98;;
21562;SDS011;10942;47.894;11.424;2023-02-28T07:38:05;22.30;;;12.88;;
21562;SDS011;10942;47.894;11.424;2023-02-28T07:40:32;26.08;;;13.68;;
21562;SDS011;10942;47.894;11.424;2023-02-28T07:42:59;25.05;;;12.52;;
21562;SDS011;10942;47.894;11.424;2023-02-28T07:45:26;22.13;;;13.30;;
21562;SDS011;10942;47.894;11.424;2023-02-28T07:47:54;21.65;;;11.52;;
21562;SDS011;10942;47.894;11.424;2023-02-28T07:50:20;22.92;;;12.85;;
21562;SDS011;10942;47.894;11.424;2023-02-28T07:52:46;27.58;;;14.07;;
21562;SDS011;10942;47.894;11.424;2023-02-28T07:55:12;23.27;;;13.27;;
21562;SDS011;10942;47.894;11.424;2023-02-28T07:57:38;27.40;;;12.80;;
21562;SDS011;10942;47.894;11.424;2023-02-28T08:00:05;25.77;;;14.13;;
21562;SDS011;10942;47.894;11.424;2023-02-28T08:02:38;25.40;;;12.82;;
21562;SDS011;10942;47.894;11.424;2023-02-28T08:05:05;25.23;;;14.00;;
21562;SDS011;10942;47.894;11.424;2023-02-28T08:07:31;22.13;;;13.02;;
21562;SDS011;10942;47.894;11.424;2023-02-28T08:09:58;20.35;;;11.45;;
21562;SDS011;10942;47.894;11.424;2023-02-28T08:12:24;21.45;;;12.38;;
21562;SDS011;10942;47.894;11.424;2023-02-28T08:14:50;25.23;;;13.27;;
21562;SDS011;10942;47.894;11.424;2023-02-28T08:17:16;23.83;;;12.35;;
21562;SDS011;10942;47.894;11.424;2023-02-28T08:19:42;23.80;;;13.27;;
21562;SDS011;10942;47.894;11.424;2023-02-28T08:22:10;24.13;;;12.63;;
21562;SDS011;10942;47.894;11.424;2023-02-28T08:24:35;22.52;;;12.77;;
21562;SDS011;10942;47.894;11.424;2023-02-28T08:27:01;25.73;;;14.07;;
21562;SDS011;10942;47.894;11.424;2023-02-28T08:29:27;28.88;;;13.88;;
21562;SDS011;10942;47.894;11.424;2023-02-28T08:31:52;32.88;;;16.17;;
21562;SDS011;10942;47.894;11.424;2023-02-28T08:34:18;30.27;;;16.02;;
21562;SDS011;10942;47.894;11.424;2023-02-28T08:36:44;26.42;;;14.65;;
21562;SDS011;10942;47.894;11.424;2023-02-28T08:39:11;23.88;;;13.52;;
21562;SDS011;10942;47.894;11.424;2023-02-28T08:41:37;22.58;;;13.43;;
21562;SDS011;10942;47.894;11.424;2023-02-28T08:44:03;28.30;;;14.77;;
21562;SDS011;10942;47.894;11.424;2023-02-28T08:46:29;25.70;;;14.80;;
21562;SDS011;10942;47.894;11.424;2023-02-28T08:48:55;23.73;;;14.10;;
21562;SDS011;10942;47.894;11.424;2023-02-28T08:51:25;23.33;;;13.00;;
21562;SDS011;10942;47.894;11.424;2023-02-28T08:53:52;22.92;;;12.63;;
21562;SDS011;10942;47.894;11.424;2023-02-28T08:56:19;23.95;;;13.27;;
21562;SDS011;10942;47.894;11.424;2023-02-28T08:58:46;24.67;;;13.88;;
21562;SDS011;10942;47.894;11.424;2023-02-28T09:01:17;26.80;;;13.77;;
21562;SDS011;10942;47.894;11.424;2023-02-28T09:03:44;19.45;;;11.45;;
21562;SDS011;10942;47.894;11.424;2023-02-28T09:06:13;21.13;;;13.30;;
21562;SDS011;10942;47.894;11.424;2023-02-28T09:08:39;22.20;;;12.52;;
21562;SDS011;10942;47.894;11.424;2023-02-28T09:11:06;24.10;;;12.93;;
21562;SDS011;10942;47.894;11.424;2023-02-28T09:13:32;24.25;;;12.95;;
21562;SDS011;10942;47.894;11.424;2023-02-28T09:15:59;23.98;;;12.57;;
21562;SDS011;10942;47.894;11.424;2023-02-28T09:18:25;22.25;;;12.00;;
21562;SDS011;10942;47.894;11.424;2023-02-28T09:20:51;21.30;;;13.43;;
21562;SDS011;10942;47.894;11.424;2023-02-28T09:23:18;22.52;;;12.00;;
21562;SDS011;10942;47.894;11.424;2023-02-28T09:25:51;21.77;;;13.10;;
21562;SDS011;10942;47.894;11.424;2023-02-28T09:28:19;25.83;;;12.93;;
21562;SDS011;10942;47.894;11.424;2023-02-28T09:30:46;22.98;;;12.63;;
21562;SDS011;10942;47.894;11.424;2023-02-28T09:33:14;24.33;;;13.15;;
21562;SDS011;10942;47.894;11.424;2023-02-28T09:35:41;25.50;;;13.93;;
21562;SDS011;10942;47.894;11.424;2023-02-28T09:38:08;20.35;;;12.43;;
21562;SDS011;10942;47.894;11.424;2023-02-28T09:40:48;25.67;;;11.90;;
21562;SDS011;10942;47.894;11.424;2023-02-28T09:43:16;21.83;;;12.13;;
21562;SDS011;10942;47.894;11.424;2023-02-28T09:45:48;23.50;;;12.48;;
21562;SDS011;10942;47.894;11.424;2023-02-28T09:48:25;21.48;;;11.93;;
21562;SDS011;10942;47.894;11.424;2023-02-28T09:53:48;21.40;;;12.00;;
21562;SDS011;10942;47.894;11.424;2023-02-28T09:56:15;22.90;;;12.48;;
21562;SDS011;10942;47.894;11.424;2023-02-28T09:58:53;22.75;;;13.07;;
21562;SDS011;10942;47.894;11.424;2023-02-28T10:06:50;19.67;;;12.07;;
21562;SDS011;10942;47.894;11.424;2023-02-28T10:09:23;22.48;;;12.35;;
21562;SDS011;10942;47.894;11.424;2023-02-28T10:11:52;20.10;;;11.07;;
21562;SDS011;10942;47.894;11.424;2023-02-28T10:14:23;21.17;;;12.40;;
21562;SDS011;10942;47.894;11.424;2023-02-28T10:22:34;27.67;;;13.15;;
21562;SDS011;10942;47.894;11.424;2023-02-28T10:25:27;22.63;;;12.88;;
21562;SDS011;10942;47.894;11.424;2023-02-28T10:28:16;26.00;;;13.13;;
21562;SDS011;10942;47.894;11.424;2023-02-28T10:30:48;25.13;;;14.13;;
21562;SDS011;10942;47.894;11.424;2023-02-28T10:35:49;23.15;;;12.63;;
21562;SDS011;10942;47.894;11.424;2023-02-28T10:38:21;23.88;;;12.20;;
21562;SDS011;10942;47.894;11.424;2023-02-28T10:40:57;22.70;;;12.80;;
21562;SDS011;10942;47.894;11.424;2023-02-28T10:43:52;22.58;;;12.65;;
21562;SDS011;10942;47.894;11.424;2023-02-28T10:46:36;20.50;;;12.18;;
21562;SDS011;10942;47.894;11.424;2023-02-28T10:49:06;22.00;;;13.02;;
21562;SDS011;10942;47.894;11.424;2023-02-28T10:51:38;25.77;;;13.98;;
21562;SDS011;10942;47.894;11.424;2023-02-28T10:54:05;20.10;;;12.82;;
21562;SDS011;10942;47.894;11.424;2023-02-28T10:56:39;20.77;;;12.35;;
21562;SDS011;10942;47.894;11.424;2023-02-28T11:01:35;21.85;;;12.52;;
21562;SDS011;10942;47.894;11.424;2023-02-28T11:09:47;18.55;;;10.52;;
21562;SDS011;10942;47.894;11.424;2023-02-28T11:12:33;20.58;;;11.75;;
21562;SDS011;10942;47.894;11.424;2023-02-28T11:15:05;21.67;;;12.23;;
21562;SDS011;10942;47.894;11.424;2023-02-28T11:17:53;22.95;;;11.55;;
21562;SDS011;10942;47.894;11.424;2023-02-28T11:20:21;20.98;;;11.93;;
21562;SDS011;10942;47.894;11.424;2023-02-28T11:22:50;23.52;;;12.45;;
21562;SDS011;10942;47.894;11.424;2023-02-28T11:25:20;23.75;;;12.75;;
21562;SDS011;10942;47.894;11.424;2023-02-28T11:28:00;19.50;;;12.13;;
21562;SDS011;10942;47.894;11.424;2023-02-28T11:30:31;19.90;;;11.32;;
21562;SDS011;10942;47.894;11.424;2023-02-28T11:32:57;20.38;;;11.77;;
21562;SDS011;10942;47.894;11.424;2023-02-28T11:35:28;19.25;;;11.20;;
21562;SDS011;10942;47.894;11.424;2023-02-28T11:37:59;19.65;;;11.77;;
21562;SDS011;10942;47.894;11.424;2023-02-28T11:40:38;21.83;;;12.57;;
21562;SDS011;10942;47.894;11.424;2023-02-28T11:46:01;22.45;;;13.18;;
21562;SDS011;10942;47.894;11.424;2023-02-28T11:54:09;21.38;;;12.27;;
21562;SDS011;10942;47.894;11.424;2023-02-28T11:58:00;22.08;;;12.55;;
21562;SDS011;10942;47.894;11.424;2023-02-28T12:00:03;20.02;;;10.38;;
21562;SDS011;10942;47.894;11.424;2023-02-28T12:09:27;19.38;;;11.45;;
21562;SDS011;10942;47.894;11.424;2023-02-28T12:20:37;18.80;;;11.02;;
21562;SDS011;10942;47.894;11.424;2023-02-28T12:28:31;18.63;;;11.65;;
21562;SDS011;10942;47.894;11.424;2023-02-28T12:33:33;17.90;;;11.85;;
21562;SDS011;10942;47.894;11.424;2023-02-28T12:36:03;20.55;;;11.93;;
21562;SDS011;10942;47.894;11.424;2023-02-28T12:38:40;23.33;;;12.75;;
21562;SDS011;10942;47.894;11.424;2023-02-28T12:43:48;21.90;;;11.52;;
21562;SDS011;10942;47.894;11.424;2023-02-28T12:46:24;19.67;;;11.63;;
21562;SDS011;10942;47.894;11.424;2023-02-28T12:48:58;20.63;;;12.15;;
21562;SDS011;10942;47.894;11.424;2023-02-28T12:51:27;22.83;;;12.60;;
21562;SDS011;10942;47.894;11.424;2023-02-28T12:59:34;19.73;;;11.50;;
21562;SDS011;10942;47.894;11.424;2023-02-28T13:08:01;18.52;;;10.00;;
21562;SDS011;10942;47.894;11.424;2023-02-28T13:10:48;19.90;;;11.00;;
21562;SDS011;10942;47.894;11.424;2023-02-28T13:13:26;22.50;;;11.48;;
21562;SDS011;10942;47.894;11.424;2023-02-28T13:21:05;19.17;;;10.98;;
21562;SDS011;10942;47.894;11.424;2023-02-28T13:23:37;18.13;;;11.55;;
21562;SDS011;10942;47.894;11.424;2023-02-28T13:32:18;18.80;;;11.35;;
21562;SDS011;10942;47.894;11.424;2023-02-28T13:45:28;19.65;;;12.30;;
21562;SDS011;10942;47.894;11.424;2023-02-28T13:47:39;20.75;;;11.73;;
21562;SDS011;10942;47.894;11.424;2023-02-28T13:55:46;19.77;;;12.45;;
21562;SDS011;10942;47.894;11.424;2023-02-28T14:07:26;19.27;;;11.90;;
21562;SDS011;10942;47.894;11.424;2023-02-28T14:10:00;20.63;;;12.65;;
21562;SDS011;10942;47.894;11.424;2023-02-28T14:18:17;19.33;;;11.43;;
21562;SDS011;10942;47.894;11.424;2023-02-28T14:20:54;20.63;;;12.18;;
21562;SDS011;10942;47.894;11.424;2023-02-28T14:35:13;20.45;;;12.48;;
21562;SDS011;10942;47.894;11.424;2023-02-28T14:37:50;19.85;;;12.82;;
21562;SDS011;10942;47.894;11.424;2023-02-28T14:40:21;24.85;;;13.63;;
21562;SDS011;10942;47.894;11.424;2023-02-28T14:43:03;19.30;;;11.85;;
21562;SDS011;10942;47.894;11.424;2023-02-28T14:45:31;23.70;;;13.45;;
21562;SDS011;10942;47.894;11.424;2023-02-28T14:47:59;21.33;;;13.23;;
21562;SDS011;10942;47.894;11.424;2023-02-28T14:50:27;21.48;;;14.00;;
21562;SDS011;10942;47.894;11.424;2023-02-28T14:52:56;21.15;;;11.93;;
21562;SDS011;10942;47.894;11.424;2023-02-28T14:55:25;22.05;;;12.30;;
21562;SDS011;10942;47.894;11.424;2023-02-28T14:57:57;22.25;;;12.75;;
21562;SDS011;10942;47.894;11.424;2023-02-28T15:00:25;22.85;;;12.55;;
21562;SDS011;10942;47.894;11.424;2023-02-28T15:02:53;23.33;;;13.50;;
21562;SDS011;10942;47.894;11.424;2023-02-28T15:05:30;26.30;;;14.43;;
21562;SDS011;10942;47.894;11.424;2023-02-28T15:08:05;22.85;;;13.90;;
21562;SDS011;10942;47.894;11.424;2023-02-28T15:10:40;18.37;;;10.27;;
21562;SDS011;10942;47.894;11.424;2023-02-28T15:13:12;22.38;;;13.38;;
21562;SDS011;10942;47.894;11.424;2023-02-28T15:18:26;22.60;;;12.82;;
21562;SDS011;10942;47.894;11.424;2023-02-28T15:21:03;24.83;;;15.30;;
21562;SDS011;10942;47.894;11.424;2023-02-28T15:23:32;23.23;;;14.45;;
21562;SDS011;10942;47.894;11.424;2023-02-28T15:26:00;41.70;;;23.88;;
21562;SDS011;10942;47.894;11.424;2023-02-28T15:28:27;37.92;;;20.13;;
21562;SDS011;10942;47.894;11.424;2023-02-28T15:30:57;26.15;;;15.38;;
21562;SDS011;10942;47.894;11.424;2023-02-28T15:33:34;26.75;;;15.77;;
21562;SDS011;10942;47.894;11.424;2023-02-28T15:36:03;23.98;;;14.45;;
21562;SDS011;10942;47.894;11.424;2023-02-28T15:38:38;24.08;;;14.60;;
21562;SDS011;10942;47.894;11.424;2023-02-28T15:41:04;23.60;;;13.07;;
21562;SDS011;10942;47.894;11.424;2023-02-28T15:43:36;28.80;;;15.48;;
21562;SDS011;10942;47.894;11.424;2023-02-28T15:46:07;35.50;;;18.52;;
21562;SDS011;10942;47.894;11.424;2023-02-28T15:48:47;38.67;;;20.35;;
21562;SDS011;10942;47.894;11.424;2023-02-28T15:51:22;31.67;;;18.95;;
21562;SDS011;10942;47.894;11.424;2023-02-28T15:56:24;26.17;;;14.65;;
21562;SDS011;10942;47.894;11.424;2023-02-28T15:58:55;23.00;;;15.65;;
21562;SDS011;10942;47.894;11.424;2023-02-28T16:03:51;28.02;;;15.32;;
21562;SDS011;10942;47.894;11.424;2023-02-28T16:06:24;40.38;;;17.40;;
21562;SDS011;10942;47.894;11.424;2023-02-28T16:09:02;27.55;;;15.88;;
21562;SDS011;10942;47.894;11.424;2023-02-28T16:11:29;26.27;;;15.27;;
21562;SDS011;10942;47.894;11.424;2023-02-28T16:13:55;25.70;;;14.60;;
21562;SDS011;10942;47.894;11.424;2023-02-28T16:16:23;25.17;;;14.10;;
21562;SDS011;10942;47.894;11.424;2023-02-28T16:18:50;21.83;;;14.43;;
21562;SDS011;10942;47.894;11.424;2023-02-28T16:21:17;28.48;;;17.08;;
21562;SDS011;10942;47.894;11.424;2023-02-28T16:23:42;36.05;;;18.40;;
21562;SDS011;10942;47.894;11.424;2023-02-28T16:26:08;27.27;;;15.38;;
21562;SDS011;10942;47.894;11.424;2023-02-28T16:28:48;26.75;;;14.80;;
21562;SDS011;10942;47.894;11.424;2023-02-28T16:31:14;25.13;;;15.70;;
21562;SDS011;10942;47.894;11.424;2023-02-28T16:33:41;25.88;;;14.73;;
21562;SDS011;10942;47.894;11.424;2023-02-28T16:36:42;25.80;;;15.88;;
21562;SDS011;10942;47.894;11.424;2023-02-28T16:39:01;27.80;;;15.15;;
21562;SDS011;10942;47.894;11.424;2023-02-28T16:41:27;28.13;;;15.90;;
21562;SDS011;10942;47.894;11.424;2023-02-28T16:43:54;26.85;;;17.20;;
21562;SDS011;10942;47.894;11.424;2023-02-28T16:46:24;29.10;;;15.52;;
21562;SDS011;10942;47.894;11.424;2023-02-28T16:48:58;27.45;;;15.70;;
21562;SDS011;10942;47.894;11.424;2023-02-28T16:51:24;34.00;;;16.95;;
21562;SDS011;10942;47.894;11.424;2023-02-28T16:53:50;35.85;;;19.42;;
21562;SDS011;10942;47.894;11.424;2023-02-28T16:56:17;32.65;;;18.92;;
21562;SDS011;10942;47.894;11.424;2023-02-28T16:58:45;35.80;;;20.40;;
21562;SDS011;10942;47.894;11.424;2023-02-28T17:01:12;38.95;;;20.60;;
21562;SDS011;10942;47.894;11.424;2023-02-28T17:03:37;44.70;;;22.05;;
21562;SDS011;10942;47.894;11.424;2023-02-28T17:06:05;56.88;;;27.63;;
21562;SDS011;10942;47.894;11.424;2023-02-28T17:08:31;38.95;;;21.75;;
21562;SDS011;10942;47.894;11.424;2023-02-28T17:11:00;33.80;;;18.08;;
21562;SDS011;10942;47.894;11.424;2023-02-28T17:13:27;28.50;;;16.58;;
21562;SDS011;10942;47.894;11.424;2023-02-28T17:15:53;34.75;;;17.73;;
21562;SDS011;10942;47.894;11.424;2023-02-28T17:18:19;35.95;;;20.08;;
21562;SDS011;10942;47.894;11.424;2023-02-28T17:20:48;34.28;;;19.63;;